sensor_id;sensor_type;location;lat;lon;timestamp;P1;durP1;ratioP1;P2;durP2;ratioP2
18576;SDS011;9418;52.694;13.294;2023-10-13T00:00:25;14.20;;;4.50;;
18576;SDS011;9418;52.694;13.294;2023-10-13T00:02:54;9.20;;;4.30;;
18576;SDS011;9418;52.694;13.294;2023-10-13T00:05:26;13.43;;;4.53;;
18576;SDS011;9418;52.694;13.294;2023-10-13T00:07:55;13.57;;;5.20;;
18576;SDS011;9418;52.694;13.294;2023-10-13T00:10:25;9.97;;;4.90;;
18576;SDS011;9418;52.694;13.294;2023-10-13T00:12:52;11.60;;;5.20;;
18576;SDS011;9418;52.694;13.294;2023-10-13T00:15:19;15.70;;;6.00;;
18576;SDS011;9418;52.694;13.294;2023-10-13T00:17:53;15.97;;;5.60;;
18576;SDS011;9418;52.694;13.294;2023-10-13T00:20:20;11.50;;;5.90;;
18576;SDS011;9418;52.694;13.294;2023-10-13T00:23:01;19.10;;;6.47;;
18576;SDS011;9418;52.694;13.294;2023-10-13T00:25:28;13.00;;;5.80;;
18576;SDS011;9418;52.694;13.294;2023-10-13T00:28:04;11.07;;;5.63;;
18576;SDS011;9418;52.694;13.294;2023-10-13T00:30:33;14.37;;;5.93;;
18576;SDS011;9418;52.694;13.294;2023-10-13T00:33:00;16.83;;;5.80;;
18576;SDS011;9418;52.694;13.294;2023-10-13T00:35:27;19.37;;;6.60;;
18576;SDS011;9418;52.694;13.294;2023-10-13T00:38:02;14.10;;;7.00;;
18576;SDS011;9418;52.694;13.294;2023-10-13T00:40:37;14.63;;;6.43;;
18576;SDS011;9418;52.694;13.294;2023-10-13T00:43:16;18.07;;;7.20;;
18576;SDS011;9418;52.694;13.294;2023-10-13T00:46:01;15.07;;;6.20;;
18576;SDS011;9418;52.694;13.294;2023-10-13T00:48:34;16.80;;;6.57;;
18576;SDS011;9418;52.694;13.294;2023-10-13T00:51:07;12.90;;;6.20;;
18576;SDS011;9418;52.694;13.294;2023-10-13T00:53:44;15.30;;;6.10;;
18576;SDS011;9418;52.694;13.294;2023-10-13T00:56:12;13.17;;;6.33;;
18576;SDS011;9418;52.694;13.294;2023-10-13T00:58:47;20.50;;;7.07;;
18576;SDS011;9418;52.694;13.294;2023-10-13T01:01:15;10.70;;;5.73;;
18576;SDS011;9418;52.694;13.294;2023-10-13T01:03:46;12.90;;;6.03;;
18576;SDS011;9418;52.694;13.294;2023-10-13T01:06:15;15.13;;;6.90;;
18576;SDS011;9418;52.694;13.294;2023-10-13T01:08:41;14.37;;;7.00;;
18576;SDS011;9418;52.694;13.294;2023-10-13T01:11:10;20.17;;;6.43;;
18576;SDS011;9418;52.694;13.294;2023-10-13T01:13:36;18.17;;;6.70;;
18576;SDS011;9418;52.694;13.294;2023-10-13T01:16:02;16.00;;;5.73;;
18576;SDS011;9418;52.694;13.294;2023-10-13T01:18:29;13.10;;;6.67;;
18576;SDS011;9418;52.694;13.294;2023-10-13T01:20:56;19.40;;;5.77;;
18576;SDS011;9418;52.694;13.294;2023-10-13T01:23:25;10.50;;;4.90;;
18576;SDS011;9418;52.694;13.294;2023-10-13T01:25:53;15.63;;;5.97;;
18576;SDS011;9418;52.694;13.294;2023-10-13T01:28:19;11.50;;;5.10;;
18576;SDS011;9418;52.694;13.294;2023-10-13T01:30:47;16.10;;;5.53;;
18576;SDS011;9418;52.694;13.294;2023-10-13T01:33:15;12.40;;;4.90;;
18576;SDS011;9418;52.694;13.294;2023-10-13T01:35:41;8.47;;;4.83;;
18576;SDS011;9418;52.694;13.294;2023-10-13T01:38:12;12.53;;;4.80;;
18576;SDS011;9418;52.694;13.294;2023-10-13T01:40:40;12.47;;;5.37;;
18576;SDS011;9418;52.694;13.294;2023-10-13T01:43:07;10.83;;;4.47;;
18576;SDS011;9418;52.694;13.294;2023-10-13T01:45:36;13.20;;;5.00;;
18576;SDS011;9418;52.694;13.294;2023-10-13T01:48:04;17.30;;;4.93;;
18576;SDS011;9418;52.694;13.294;2023-10-13T01:50:32;9.97;;;5.47;;
18576;SDS011;9418;52.694;13.294;2023-10-13T01:53:01;10.80;;;4.30;;
18576;SDS011;9418;52.694;13.294;2023-10-13T01:55:37;11.23;;;5.03;;
18576;SDS011;9418;52.694;13.294;2023-10-13T01:58:09;10.73;;;4.87;;
18576;SDS011;9418;52.694;13.294;2023-10-13T02:00:40;7.63;;;4.50;;
18576;SDS011;9418;52.694;13.294;2023-10-13T02:03:07;17.20;;;4.70;;
18576;SDS011;9418;52.694;13.294;2023-10-13T02:05:40;6.80;;;4.00;;
18576;SDS011;9418;52.694;13.294;2023-10-13T02:08:11;12.20;;;5.13;;
18576;SDS011;9418;52.694;13.294;2023-10-13T02:10:42;9.83;;;4.10;;
18576;SDS011;9418;52.694;13.294;2023-10-13T02:13:12;17.57;;;4.67;;
18576;SDS011;9418;52.694;13.294;2023-10-13T02:15:43;9.27;;;3.93;;
18576;SDS011;9418;52.694;13.294;2023-10-13T02:18:09;9.80;;;4.10;;
18576;SDS011;9418;52.694;13.294;2023-10-13T02:20:38;10.10;;;4.30;;
18576;SDS011;9418;52.694;13.294;2023-10-13T02:23:08;9.83;;;4.00;;
18576;SDS011;9418;52.694;13.294;2023-10-13T02:25:36;4.90;;;3.40;;
18576;SDS011;9418;52.694;13.294;2023-10-13T02:28:08;8.60;;;3.60;;
18576;SDS011;9418;52.694;13.294;2023-10-13T02:30:39;13.83;;;4.73;;
18576;SDS011;9418;52.694;13.294;2023-10-13T02:33:09;8.73;;;3.93;;
18576;SDS011;9418;52.694;13.294;2023-10-13T02:35:39;11.30;;;4.67;;
18576;SDS011;9418;52.694;13.294;2023-10-13T02:38:15;8.13;;;4.20;;
18576;SDS011;9418;52.694;13.294;2023-10-13T02:40:51;16.20;;;5.10;;
18576;SDS011;9418;52.694;13.294;2023-10-13T02:43:19;7.07;;;3.73;;
18576;SDS011;9418;52.694;13.294;2023-10-13T02:45:52;8.23;;;4.57;;
18576;SDS011;9418;52.694;13.294;2023-10-13T02:48:23;9.60;;;4.70;;
18576;SDS011;9418;52.694;13.294;2023-10-13T02:50:54;10.90;;;4.87;;
18576;SDS011;9418;52.694;13.294;2023-10-13T02:53:22;16.00;;;5.60;;
18576;SDS011;9418;52.694;13.294;2023-10-13T02:55:53;8.53;;;5.23;;
18576;SDS011;9418;52.694;13.294;2023-10-13T02:58:20;18.63;;;5.50;;
18576;SDS011;9418;52.694;13.294;2023-10-13T03:00:47;15.67;;;6.50;;
18576;SDS011;9418;52.694;13.294;2023-10-13T03:03:14;8.33;;;4.87;;
18576;SDS011;9418;52.694;13.294;2023-10-13T03:05:43;15.03;;;6.43;;
18576;SDS011;9418;52.694;13.294;2023-10-13T03:08:10;9.00;;;5.40;;
18576;SDS011;9418;52.694;13.294;2023-10-13T03:10:42;11.97;;;6.10;;
18576;SDS011;9418;52.694;13.294;2023-10-13T03:13:15;15.73;;;5.90;;
18576;SDS011;9418;52.694;13.294;2023-10-13T03:15:41;12.80;;;6.60;;
18576;SDS011;9418;52.694;13.294;2023-10-13T03:18:12;14.50;;;6.50;;
18576;SDS011;9418;52.694;13.294;2023-10-13T03:20:44;13.67;;;6.37;;
18576;SDS011;9418;52.694;13.294;2023-10-13T03:23:15;13.67;;;6.40;;
18576;SDS011;9418;52.694;13.294;2023-10-13T03:25:41;20.10;;;7.00;;
18576;SDS011;9418;52.694;13.294;2023-10-13T03:28:08;16.00;;;6.77;;
18576;SDS011;9418;52.694;13.294;2023-10-13T03:30:39;17.30;;;7.83;;
18576;SDS011;9418;52.694;13.294;2023-10-13T03:33:07;12.87;;;7.70;;
18576;SDS011;9418;52.694;13.294;2023-10-13T03:35:36;19.87;;;7.63;;
18576;SDS011;9418;52.694;13.294;2023-10-13T03:38:07;21.30;;;7.60;;
18576;SDS011;9418;52.694;13.294;2023-10-13T03:40:42;22.70;;;8.60;;
18576;SDS011;9418;52.694;13.294;2023-10-13T03:43:14;25.00;;;9.87;;
18576;SDS011;9418;52.694;13.294;2023-10-13T03:45:46;17.27;;;7.70;;
18576;SDS011;9418;52.694;13.294;2023-10-13T03:48:18;22.33;;;9.43;;
18576;SDS011;9418;52.694;13.294;2023-10-13T03:50:54;15.57;;;8.63;;
18576;SDS011;9418;52.694;13.294;2023-10-13T03:53:29;21.27;;;9.23;;
18576;SDS011;9418;52.694;13.294;2023-10-13T03:55:59;28.50;;;8.90;;
18576;SDS011;9418;52.694;13.294;2023-10-13T03:58:37;17.53;;;8.43;;
18576;SDS011;9418;52.694;13.294;2023-10-13T04:01:07;18.10;;;9.03;;
18576;SDS011;9418;52.694;13.294;2023-10-13T04:03:37;26.40;;;10.17;;
18576;SDS011;9418;52.694;13.294;2023-10-13T04:06:21;20.23;;;10.23;;
18576;SDS011;9418;52.694;13.294;2023-10-13T04:09:09;24.30;;;10.23;;
18576;SDS011;9418;52.694;13.294;2023-10-13T04:11:55;16.03;;;9.33;;
18576;SDS011;9418;52.694;13.294;2023-10-13T04:14:47;17.90;;;10.73;;
18576;SDS011;9418;52.694;13.294;2023-10-13T04:17:40;17.97;;;11.63;;
18576;SDS011;9418;52.694;13.294;2023-10-13T04:20:10;24.60;;;11.27;;
18576;SDS011;9418;52.694;13.294;2023-10-13T04:22:52;23.60;;;12.23;;
18576;SDS011;9418;52.694;13.294;2023-10-13T04:25:37;23.33;;;12.27;;
18576;SDS011;9418;52.694;13.294;2023-10-13T04:28:30;17.80;;;10.77;;
18576;SDS011;9418;52.694;13.294;2023-10-13T04:31:16;24.20;;;12.23;;
18576;SDS011;9418;52.694;13.294;2023-10-13T04:34:10;22.80;;;11.57;;
18576;SDS011;9418;52.694;13.294;2023-10-13T04:36:44;15.43;;;10.90;;
18576;SDS011;9418;52.694;13.294;2023-10-13T04:39:11;20.33;;;11.80;;
18576;SDS011;9418;52.694;13.294;2023-10-13T04:41:56;19.80;;;12.07;;
18576;SDS011;9418;52.694;13.294;2023-10-13T04:44:38;19.87;;;12.67;;
18576;SDS011;9418;52.694;13.294;2023-10-13T04:47:13;16.90;;;11.87;;
18576;SDS011;9418;52.694;13.294;2023-10-13T04:49:46;20.57;;;13.30;;
18576;SDS011;9418;52.694;13.294;2023-10-13T04:52:16;22.77;;;13.10;;
18576;SDS011;9418;52.694;13.294;2023-10-13T04:54:57;18.73;;;12.23;;
18576;SDS011;9418;52.694;13.294;2023-10-13T04:57:36;21.73;;;13.60;;
18576;SDS011;9418;52.694;13.294;2023-10-13T05:00:12;21.43;;;13.80;;
18576;SDS011;9418;52.694;13.294;2023-10-13T05:02:57;23.00;;;14.50;;
18576;SDS011;9418;52.694;13.294;2023-10-13T05:05:42;21.53;;;13.70;;
18576;SDS011;9418;52.694;13.294;2023-10-13T05:08:32;25.80;;;14.33;;
18576;SDS011;9418;52.694;13.294;2023-10-13T05:11:16;29.60;;;13.50;;
18576;SDS011;9418;52.694;13.294;2023-10-13T05:14:02;20.37;;;14.00;;
18576;SDS011;9418;52.694;13.294;2023-10-13T05:16:46;14.53;;;12.57;;
18576;SDS011;9418;52.694;13.294;2023-10-13T05:19:31;26.43;;;16.10;;
18576;SDS011;9418;52.694;13.294;2023-10-13T05:22:15;26.97;;;13.50;;
18576;SDS011;9418;52.694;13.294;2023-10-13T05:24:59;23.03;;;13.63;;
18576;SDS011;9418;52.694;13.294;2023-10-13T05:27:43;22.20;;;12.40;;
18576;SDS011;9418;52.694;13.294;2023-10-13T05:30:29;26.37;;;13.90;;
18576;SDS011;9418;52.694;13.294;2023-10-13T05:33:13;22.40;;;14.73;;
18576;SDS011;9418;52.694;13.294;2023-10-13T05:35:57;22.30;;;14.60;;
18576;SDS011;9418;52.694;13.294;2023-10-13T05:38:41;18.37;;;14.00;;
18576;SDS011;9418;52.694;13.294;2023-10-13T05:41:25;24.43;;;14.70;;
18576;SDS011;9418;52.694;13.294;2023-10-13T05:44:09;18.10;;;14.33;;
18576;SDS011;9418;52.694;13.294;2023-10-13T05:46:55;22.50;;;14.57;;
18576;SDS011;9418;52.694;13.294;2023-10-13T05:49:47;23.40;;;14.40;;
18576;SDS011;9418;52.694;13.294;2023-10-13T05:52:15;19.47;;;13.90;;
18576;SDS011;9418;52.694;13.294;2023-10-13T05:55:05;20.17;;;13.83;;
18576;SDS011;9418;52.694;13.294;2023-10-13T05:57:50;19.33;;;14.37;;
18576;SDS011;9418;52.694;13.294;2023-10-13T06:00:37;30.57;;;14.50;;
18576;SDS011;9418;52.694;13.294;2023-10-13T06:03:24;19.73;;;14.10;;
18576;SDS011;9418;52.694;13.294;2023-10-13T06:06:09;23.87;;;14.07;;
18576;SDS011;9418;52.694;13.294;2023-10-13T06:08:53;22.93;;;14.10;;
18576;SDS011;9418;52.694;13.294;2023-10-13T06:11:37;22.23;;;12.97;;
18576;SDS011;9418;52.694;13.294;2023-10-13T06:14:21;25.50;;;13.37;;
18576;SDS011;9418;52.694;13.294;2023-10-13T06:17:05;22.30;;;14.83;;
18576;SDS011;9418;52.694;13.294;2023-10-13T06:19:50;20.00;;;14.40;;
18576;SDS011;9418;52.694;13.294;2023-10-13T06:22:35;16.53;;;13.77;;
18576;SDS011;9418;52.694;13.294;2023-10-13T06:25:19;21.53;;;13.83;;
18576;SDS011;9418;52.694;13.294;2023-10-13T06:28:03;25.50;;;12.87;;
18576;SDS011;9418;52.694;13.294;2023-10-13T06:30:55;21.73;;;12.00;;
18576;SDS011;9418;52.694;13.294;2023-10-13T06:33:22;22.20;;;12.40;;
18576;SDS011;9418;52.694;13.294;2023-10-13T06:35:55;16.47;;;12.40;;
18576;SDS011;9418;52.694;13.294;2023-10-13T06:38:23;22.10;;;13.23;;
18576;SDS011;9418;52.694;13.294;2023-10-13T06:40:52;20.67;;;13.40;;
18576;SDS011;9418;52.694;13.294;2023-10-13T06:43:18;13.67;;;11.27;;
18576;SDS011;9418;52.694;13.294;2023-10-13T06:45:47;15.77;;;11.33;;
18576;SDS011;9418;52.694;13.294;2023-10-13T06:48:22;24.17;;;12.47;;
18576;SDS011;9418;52.694;13.294;2023-10-13T06:50:50;21.67;;;11.60;;
18576;SDS011;9418;52.694;13.294;2023-10-13T06:53:19;17.17;;;12.40;;
18576;SDS011;9418;52.694;13.294;2023-10-13T06:55:45;21.03;;;12.13;;
18576;SDS011;9418;52.694;13.294;2023-10-13T06:58:14;18.33;;;12.27;;
18576;SDS011;9418;52.694;13.294;2023-10-13T07:00:42;16.53;;;11.67;;
18576;SDS011;9418;52.694;13.294;2023-10-13T07:03:18;17.40;;;10.73;;
18576;SDS011;9418;52.694;13.294;2023-10-13T07:05:46;20.30;;;11.43;;
18576;SDS011;9418;52.694;13.294;2023-10-13T07:08:14;17.97;;;11.20;;
18576;SDS011;9418;52.694;13.294;2023-10-13T07:10:49;17.27;;;10.83;;
18576;SDS011;9418;52.694;13.294;2023-10-13T07:13:27;20.20;;;11.00;;
18576;SDS011;9418;52.694;13.294;2023-10-13T07:15:54;16.93;;;11.37;;
18576;SDS011;9418;52.694;13.294;2023-10-13T07:18:25;22.43;;;11.20;;
18576;SDS011;9418;52.694;13.294;2023-10-13T07:20:57;17.50;;;10.93;;
18576;SDS011;9418;52.694;13.294;2023-10-13T07:23:25;18.47;;;10.83;;
18576;SDS011;9418;52.694;13.294;2023-10-13T07:25:53;15.27;;;10.80;;
18576;SDS011;9418;52.694;13.294;2023-10-13T07:28:27;16.90;;;11.20;;
18576;SDS011;9418;52.694;13.294;2023-10-13T07:30:55;15.93;;;9.70;;
18576;SDS011;9418;52.694;13.294;2023-10-13T07:33:37;21.63;;;11.83;;
18576;SDS011;9418;52.694;13.294;2023-10-13T07:36:06;16.37;;;11.37;;
18576;SDS011;9418;52.694;13.294;2023-10-13T07:38:40;21.03;;;10.43;;
18576;SDS011;9418;52.694;13.294;2023-10-13T07:41:10;16.57;;;10.67;;
18576;SDS011;9418;52.694;13.294;2023-10-13T07:43:40;20.60;;;11.40;;
18576;SDS011;9418;52.694;13.294;2023-10-13T07:46:07;16.47;;;11.30;;
18576;SDS011;9418;52.694;13.294;2023-10-13T07:48:35;16.20;;;10.10;;
18576;SDS011;9418;52.694;13.294;2023-10-13T07:51:03;14.63;;;10.40;;
18576;SDS011;9418;52.694;13.294;2023-10-13T07:53:34;14.10;;;9.90;;
18576;SDS011;9418;52.694;13.294;2023-10-13T07:56:05;19.00;;;10.83;;
18576;SDS011;9418;52.694;13.294;2023-10-13T07:58:34;20.50;;;11.00;;
18576;SDS011;9418;52.694;13.294;2023-10-13T08:01:12;16.00;;;9.17;;
18576;SDS011;9418;52.694;13.294;2023-10-13T08:03:43;15.80;;;10.77;;
18576;SDS011;9418;52.694;13.294;2023-10-13T08:06:09;17.03;;;10.10;;
18576;SDS011;9418;52.694;13.294;2023-10-13T08:08:46;17.50;;;10.63;;
18576;SDS011;9418;52.694;13.294;2023-10-13T08:11:18;22.77;;;11.27;;
18576;SDS011;9418;52.694;13.294;2023-10-13T08:13:53;13.90;;;8.83;;
18576;SDS011;9418;52.694;13.294;2023-10-13T08:16:23;16.63;;;8.90;;
18576;SDS011;9418;52.694;13.294;2023-10-13T08:19:10;14.10;;;9.60;;
18576;SDS011;9418;52.694;13.294;2023-10-13T08:21:38;18.10;;;9.30;;
18576;SDS011;9418;52.694;13.294;2023-10-13T08:24:08;13.20;;;9.33;;
18576;SDS011;9418;52.694;13.294;2023-10-13T08:26:34;11.43;;;9.33;;
18576;SDS011;9418;52.694;13.294;2023-10-13T08:29:20;11.70;;;7.83;;
18576;SDS011;9418;52.694;13.294;2023-10-13T08:32:04;15.90;;;9.13;;
18576;SDS011;9418;52.694;13.294;2023-10-13T08:34:48;12.03;;;7.67;;
18576;SDS011;9418;52.694;13.294;2023-10-13T08:37:34;16.03;;;8.00;;
18576;SDS011;9418;52.694;13.294;2023-10-13T08:40:12;13.70;;;8.70;;
18576;SDS011;9418;52.694;13.294;2023-10-13T08:43:06;15.10;;;7.50;;
18576;SDS011;9418;52.694;13.294;2023-10-13T08:45:38;10.00;;;6.60;;
18576;SDS011;9418;52.694;13.294;2023-10-13T08:48:23;11.80;;;7.53;;
18576;SDS011;9418;52.694;13.294;2023-10-13T08:50:56;9.23;;;7.53;;
18576;SDS011;9418;52.694;13.294;2023-10-13T08:53:33;8.20;;;6.40;;
18576;SDS011;9418;52.694;13.294;2023-10-13T08:56:10;11.53;;;7.30;;
18576;SDS011;9418;52.694;13.294;2023-10-13T08:58:41;13.93;;;7.67;;
18576;SDS011;9418;52.694;13.294;2023-10-13T09:01:28;7.87;;;6.07;;
18576;SDS011;9418;52.694;13.294;2023-10-13T09:04:10;11.13;;;7.20;;
18576;SDS011;9418;52.694;13.294;2023-10-13T09:06:47;14.40;;;5.73;;
18576;SDS011;9418;52.694;13.294;2023-10-13T09:09:28;7.87;;;6.40;;
18576;SDS011;9418;52.694;13.294;2023-10-13T09:11:59;13.93;;;6.57;;
18576;SDS011;9418;52.694;13.294;2023-10-13T09:14:34;16.17;;;7.10;;
18576;SDS011;9418;52.694;13.294;2023-10-13T09:17:04;11.53;;;6.50;;
18576;SDS011;9418;52.694;13.294;2023-10-13T09:19:43;8.77;;;6.30;;
18576;SDS011;9418;52.694;13.294;2023-10-13T09:22:20;12.40;;;6.80;;
18576;SDS011;9418;52.694;13.294;2023-10-13T09:25:00;9.50;;;6.27;;
18576;SDS011;9418;52.694;13.294;2023-10-13T09:27:27;11.03;;;5.60;;
18576;SDS011;9418;52.694;13.294;2023-10-13T09:29:54;10.20;;;5.80;;
18576;SDS011;9418;52.694;13.294;2023-10-13T09:32:22;8.70;;;6.27;;
18576;SDS011;9418;52.694;13.294;2023-10-13T09:34:48;11.80;;;6.33;;
18576;SDS011;9418;52.694;13.294;2023-10-13T09:37:16;18.37;;;6.80;;
18576;SDS011;9418;52.694;13.294;2023-10-13T09:39:46;17.00;;;7.33;;
18576;SDS011;9418;52.694;13.294;2023-10-13T09:42:13;10.93;;;6.23;;
18576;SDS011;9418;52.694;13.294;2023-10-13T09:44:43;14.97;;;7.60;;
18576;SDS011;9418;52.694;13.294;2023-10-13T09:47:14;10.03;;;6.87;;
18576;SDS011;9418;52.694;13.294;2023-10-13T09:49:46;14.33;;;7.00;;
18576;SDS011;9418;52.694;13.294;2023-10-13T09:52:15;8.63;;;5.83;;
18576;SDS011;9418;52.694;13.294;2023-10-13T09:54:53;9.03;;;6.00;;
18576;SDS011;9418;52.694;13.294;2023-10-13T09:57:27;8.80;;;5.20;;
18576;SDS011;9418;52.694;13.294;2023-10-13T10:00:00;9.47;;;5.90;;
18576;SDS011;9418;52.694;13.294;2023-10-13T10:02:51;12.20;;;6.40;;
18576;SDS011;9418;52.694;13.294;2023-10-13T10:05:24;9.77;;;6.53;;
18576;SDS011;9418;52.694;13.294;2023-10-13T10:07:55;7.03;;;5.53;;
18576;SDS011;9418;52.694;13.294;2023-10-13T10:10:21;8.63;;;6.30;;
18576;SDS011;9418;52.694;13.294;2023-10-13T10:12:49;10.83;;;5.73;;
18576;SDS011;9418;52.694;13.294;2023-10-13T10:15:22;7.60;;;6.37;;
18576;SDS011;9418;52.694;13.294;2023-10-13T10:17:55;12.10;;;6.90;;
18576;SDS011;9418;52.694;13.294;2023-10-13T10:20:29;9.80;;;6.67;;
18576;SDS011;9418;52.694;13.294;2023-10-13T10:23:04;14.50;;;5.80;;
18576;SDS011;9418;52.694;13.294;2023-10-13T10:25:34;9.17;;;6.13;;
18576;SDS011;9418;52.694;13.294;2023-10-13T10:28:03;10.13;;;6.77;;
18576;SDS011;9418;52.694;13.294;2023-10-13T10:30:31;17.00;;;6.90;;
18576;SDS011;9418;52.694;13.294;2023-10-13T10:32:59;13.73;;;6.70;;
18576;SDS011;9418;52.694;13.294;2023-10-13T10:35:33;13.27;;;6.80;;
18576;SDS011;9418;52.694;13.294;2023-10-13T10:38:10;10.10;;;6.10;;
18576;SDS011;9418;52.694;13.294;2023-10-13T10:40:50;9.40;;;6.60;;
18576;SDS011;9418;52.694;13.294;2023-10-13T10:43:21;9.03;;;6.73;;
18576;SDS011;9418;52.694;13.294;2023-10-13T10:45:51;7.90;;;5.93;;
18576;SDS011;9418;52.694;13.294;2023-10-13T10:48:24;6.27;;;5.67;;
18576;SDS011;9418;52.694;13.294;2023-10-13T10:50:57;11.20;;;6.90;;
18576;SDS011;9418;52.694;13.294;2023-10-13T10:53:33;8.23;;;6.27;;
18576;SDS011;9418;52.694;13.294;2023-10-13T10:56:08;13.23;;;6.27;;
18576;SDS011;9418;52.694;13.294;2023-10-13T10:58:44;10.70;;;6.40;;
18576;SDS011;9418;52.694;13.294;2023-10-13T11:01:11;9.00;;;5.90;;
18576;SDS011;9418;52.694;13.294;2023-10-13T11:03:52;18.77;;;6.50;;
18576;SDS011;9418;52.694;13.294;2023-10-13T11:06:23;10.60;;;7.10;;
18576;SDS011;9418;52.694;13.294;2023-10-13T11:09:00;13.63;;;6.37;;
18576;SDS011;9418;52.694;13.294;2023-10-13T11:11:29;16.20;;;6.50;;
18576;SDS011;9418;52.694;13.294;2023-10-13T11:14:00;10.93;;;6.80;;
18576;SDS011;9418;52.694;13.294;2023-10-13T11:16:44;13.13;;;6.60;;
18576;SDS011;9418;52.694;13.294;2023-10-13T11:19:15;11.50;;;6.20;;
18576;SDS011;9418;52.694;13.294;2023-10-13T11:21:46;16.70;;;6.30;;
18576;SDS011;9418;52.694;13.294;2023-10-13T11:24:13;8.40;;;7.20;;
18576;SDS011;9418;52.694;13.294;2023-10-13T11:26:42;16.43;;;6.67;;
18576;SDS011;9418;52.694;13.294;2023-10-13T11:29:14;12.07;;;6.47;;
18576;SDS011;9418;52.694;13.294;2023-10-13T11:31:43;13.60;;;6.67;;
18576;SDS011;9418;52.694;13.294;2023-10-13T11:34:11;7.37;;;6.60;;
18576;SDS011;9418;52.694;13.294;2023-10-13T11:36:37;11.30;;;6.90;;
18576;SDS011;9418;52.694;13.294;2023-10-13T11:39:06;13.90;;;6.67;;
18576;SDS011;9418;52.694;13.294;2023-10-13T11:41:33;12.57;;;6.40;;
18576;SDS011;9418;52.694;13.294;2023-10-13T11:44:03;17.00;;;7.10;;
18576;SDS011;9418;52.694;13.294;2023-10-13T11:46:38;16.47;;;6.00;;
18576;SDS011;9418;52.694;13.294;2023-10-13T11:49:20;8.90;;;6.20;;
18576;SDS011;9418;52.694;13.294;2023-10-13T11:51:57;8.13;;;6.33;;
18576;SDS011;9418;52.694;13.294;2023-10-13T11:54:35;16.10;;;7.00;;
18576;SDS011;9418;52.694;13.294;2023-10-13T11:57:06;13.23;;;6.83;;
18576;SDS011;9418;52.694;13.294;2023-10-13T11:59:33;9.40;;;7.00;;
18576;SDS011;9418;52.694;13.294;2023-10-13T12:02:05;10.30;;;6.60;;
18576;SDS011;9418;52.694;13.294;2023-10-13T12:04:49;11.23;;;6.70;;
18576;SDS011;9418;52.694;13.294;2023-10-13T12:07:19;11.17;;;6.50;;
18576;SDS011;9418;52.694;13.294;2023-10-13T12:09:53;16.03;;;7.03;;
18576;SDS011;9418;52.694;13.294;2023-10-13T12:12:31;13.00;;;6.87;;
18576;SDS011;9418;52.694;13.294;2023-10-13T12:15:05;8.93;;;5.90;;
18576;SDS011;9418;52.694;13.294;2023-10-13T12:17:39;8.33;;;6.63;;
18576;SDS011;9418;52.694;13.294;2023-10-13T12:20:10;14.50;;;6.83;;
18576;SDS011;9418;52.694;13.294;2023-10-13T12:22:43;11.20;;;6.70;;
18576;SDS011;9418;52.694;13.294;2023-10-13T12:25:21;11.20;;;6.20;;
18576;SDS011;9418;52.694;13.294;2023-10-13T12:27:59;8.50;;;5.97;;
18576;SDS011;9418;52.694;13.294;2023-10-13T12:30:37;22.33;;;6.80;;
18576;SDS011;9418;52.694;13.294;2023-10-13T12:33:14;9.93;;;6.43;;
18576;SDS011;9418;52.694;13.294;2023-10-13T12:35:49;9.20;;;6.00;;
18576;SDS011;9418;52.694;13.294;2023-10-13T12:38:28;15.27;;;7.20;;
18576;SDS011;9418;52.694;13.294;2023-10-13T12:41:17;15.20;;;6.73;;
18576;SDS011;9418;52.694;13.294;2023-10-13T12:44:02;13.40;;;6.70;;
18576;SDS011;9418;52.694;13.294;2023-10-13T12:46:48;7.10;;;5.80;;
18576;SDS011;9418;52.694;13.294;2023-10-13T12:49:32;6.80;;;5.70;;
18576;SDS011;9418;52.694;13.294;2023-10-13T12:52:14;10.43;;;5.23;;
18576;SDS011;9418;52.694;13.294;2023-10-13T12:54:44;12.03;;;5.70;;
18576;SDS011;9418;52.694;13.294;2023-10-13T12:57:14;20.50;;;7.10;;
18576;SDS011;9418;52.694;13.294;2023-10-13T12:59:41;12.47;;;5.70;;
18576;SDS011;9418;52.694;13.294;2023-10-13T13:02:07;12.80;;;5.80;;
18576;SDS011;9418;52.694;13.294;2023-10-13T13:04:39;14.13;;;5.77;;
18576;SDS011;9418;52.694;13.294;2023-10-13T13:07:09;6.27;;;5.10;;
18576;SDS011;9418;52.694;13.294;2023-10-13T13:09:38;10.77;;;5.60;;
18576;SDS011;9418;52.694;13.294;2023-10-13T13:12:05;11.03;;;6.30;;
18576;SDS011;9418;52.694;13.294;2023-10-13T13:14:33;10.07;;;5.80;;
18576;SDS011;9418;52.694;13.294;2023-10-13T13:17:00;11.77;;;6.33;;
18576;SDS011;9418;52.694;13.294;2023-10-13T13:19:30;11.57;;;5.77;;
18576;SDS011;9418;52.694;13.294;2023-10-13T13:22:00;16.43;;;5.90;;
18576;SDS011;9418;52.694;13.294;2023-10-13T13:24:27;16.27;;;6.17;;
18576;SDS011;9418;52.694;13.294;2023-10-13T13:26:55;26.67;;;7.10;;
18576;SDS011;9418;52.694;13.294;2023-10-13T13:29:21;7.70;;;5.67;;
18576;SDS011;9418;52.694;13.294;2023-10-13T13:31:52;13.40;;;6.27;;
18576;SDS011;9418;52.694;13.294;2023-10-13T13:34:18;15.27;;;6.30;;
18576;SDS011;9418;52.694;13.294;2023-10-13T13:36:46;15.37;;;5.67;;
18576;SDS011;9418;52.694;13.294;2023-10-13T13:39:17;24.50;;;6.87;;
18576;SDS011;9418;52.694;13.294;2023-10-13T13:41:53;15.73;;;5.83;;
18576;SDS011;9418;52.694;13.294;2023-10-13T13:44:21;14.27;;;6.30;;
18576;SDS011;9418;52.694;13.294;2023-10-13T13:46:55;16.70;;;6.90;;
18576;SDS011;9418;52.694;13.294;2023-10-13T13:49:22;23.83;;;6.10;;
18576;SDS011;9418;52.694;13.294;2023-10-13T13:51:55;12.30;;;5.80;;
18576;SDS011;9418;52.694;13.294;2023-10-13T13:54:22;30.83;;;6.80;;
18576;SDS011;9418;52.694;13.294;2023-10-13T13:56:52;13.40;;;5.67;;
18576;SDS011;9418;52.694;13.294;2023-10-13T13:59:19;12.17;;;6.10;;
18576;SDS011;9418;52.694;13.294;2023-10-13T14:01:45;12.47;;;5.40;;
18576;SDS011;9418;52.694;13.294;2023-10-13T14:04:13;19.47;;;6.03;;
18576;SDS011;9418;52.694;13.294;2023-10-13T14:06:42;9.53;;;4.63;;
18576;SDS011;9418;52.694;13.294;2023-10-13T14:09:10;12.80;;;6.10;;
18576;SDS011;9418;52.694;13.294;2023-10-13T14:11:40;13.93;;;6.10;;
18576;SDS011;9418;52.694;13.294;2023-10-13T14:14:25;14.17;;;5.73;;
18576;SDS011;9418;52.694;13.294;2023-10-13T14:16:58;12.60;;;5.30;;
18576;SDS011;9418;52.694;13.294;2023-10-13T14:19:33;16.23;;;6.13;;
18576;SDS011;9418;52.694;13.294;2023-10-13T14:21:59;13.20;;;5.90;;
18576;SDS011;9418;52.694;13.294;2023-10-13T14:24:31;17.80;;;5.70;;
18576;SDS011;9418;52.694;13.294;2023-10-13T14:26:59;15.40;;;5.60;;
18576;SDS011;9418;52.694;13.294;2023-10-13T14:29:34;13.13;;;6.00;;
18576;SDS011;9418;52.694;13.294;2023-10-13T14:32:05;12.90;;;5.50;;
18576;SDS011;9418;52.694;13.294;2023-10-13T14:34:34;12.27;;;5.57;;
18576;SDS011;9418;52.694;13.294;2023-10-13T14:37:00;15.53;;;5.50;;
18576;SDS011;9418;52.694;13.294;2023-10-13T14:39:29;12.40;;;5.70;;
18576;SDS011;9418;52.694;13.294;2023-10-13T14:41:59;19.23;;;6.50;;
18576;SDS011;9418;52.694;13.294;2023-10-13T14:44:27;25.57;;;6.60;;
18576;SDS011;9418;52.694;13.294;2023-10-13T14:46:54;9.40;;;6.60;;
18576;SDS011;9418;52.694;13.294;2023-10-13T14:49:20;11.40;;;5.37;;
18576;SDS011;9418;52.694;13.294;2023-10-13T14:51:48;15.80;;;5.70;;
18576;SDS011;9418;52.694;13.294;2023-10-13T14:54:15;15.83;;;6.67;;
18576;SDS011;9418;52.694;13.294;2023-10-13T14:56:42;15.17;;;6.03;;
18576;SDS011;9418;52.694;13.294;2023-10-13T14:59:09;17.10;;;6.63;;
18576;SDS011;9418;52.694;13.294;2023-10-13T15:01:41;16.10;;;5.00;;
18576;SDS011;9418;52.694;13.294;2023-10-13T15:04:08;21.57;;;6.60;;
18576;SDS011;9418;52.694;13.294;2023-10-13T15:06:35;28.40;;;7.40;;
18576;SDS011;9418;52.694;13.294;2023-10-13T15:09:03;16.30;;;6.73;;